createdAt,value
2023-02-02T00:00:40.580Z,1.90
2023-02-02T00:03:43.372Z,1.88
2023-02-02T00:06:47.432Z,1.60
2023-02-02T00:09:50.259Z,1.65
2023-02-02T00:12:54.075Z,1.70
2023-02-02T00:15:56.857Z,1.77
2023-02-02T00:19:02.430Z,2.03
2023-02-02T00:22:05.039Z,1.60
2023-02-02T00:25:08.342Z,1.60
2023-02-02T00:28:10.930Z,2.13
2023-02-02T00:31:13.631Z,1.73
2023-02-02T00:34:17.443Z,1.77
2023-02-02T00:37:22.539Z,1.57
2023-02-02T00:40:25.220Z,1.50
2023-02-02T00:43:27.747Z,1.60
2023-02-02T00:46:31.473Z,1.80
2023-02-02T00:49:34.142Z,2.05
2023-02-02T00:52:36.775Z,1.70
2023-02-02T00:55:39.386Z,1.80
2023-02-02T00:58:42.195Z,1.67
2023-02-02T01:01:45.101Z,1.67
2023-02-02T01:04:48.003Z,1.73
2023-02-02T01:07:50.855Z,1.40
2023-02-02T01:10:53.639Z,1.52
2023-02-02T01:13:58.362Z,1.85
2023-02-02T01:17:00.961Z,1.83
2023-02-02T01:20:05.065Z,1.55
2023-02-02T01:23:07.727Z,1.63
2023-02-02T01:26:12.535Z,1.65
2023-02-02T01:29:15.804Z,1.50
2023-02-02T01:32:18.440Z,1.80
2023-02-02T01:35:22.401Z,1.52
2023-02-02T01:38:26.725Z,1.40
2023-02-02T01:41:29.579Z,1.60
2023-02-02T01:44:57.215Z,1.88
2023-02-02T01:48:00.719Z,1.80
2023-02-02T01:51:11.699Z,1.77
2023-02-02T01:54:33.033Z,1.67
2023-02-02T01:57:49.389Z,1.60
2023-02-02T02:00:54.461Z,2.00
2023-02-02T02:03:57.567Z,1.77
2023-02-02T02:07:03.746Z,1.60
2023-02-02T02:10:08.043Z,1.40
2023-02-02T02:13:11.859Z,1.30
2023-02-02T02:16:27.666Z,1.77
2023-02-02T02:20:14.008Z,2.05
2023-02-02T02:23:59.976Z,1.60
2023-02-02T02:27:13.197Z,1.53
2023-02-02T02:30:37.612Z,1.58
2023-02-02T02:33:59.446Z,1.73
2023-02-02T02:37:12.111Z,1.70
2023-02-02T02:40:26.512Z,1.60
2023-02-02T02:43:39.714Z,1.50
2023-02-02T02:46:43.392Z,1.50
2023-02-02T02:49:48.405Z,1.73
2023-02-02T02:53:00.802Z,1.50
2023-02-02T02:56:17.023Z,1.80
2023-02-02T02:59:47.795Z,1.60
2023-02-02T03:03:09.382Z,1.50
2023-02-02T03:06:12.294Z,1.75
2023-02-02T03:09:25.885Z,1.50
2023-02-02T03:12:28.758Z,1.67
2023-02-02T03:15:31.579Z,1.60
2023-02-02T03:18:35.014Z,1.73
2023-02-02T03:21:37.882Z,1.60
2023-02-02T03:24:40.499Z,1.30
2023-02-02T03:27:43.185Z,1.73
2023-02-02T03:30:47.337Z,1.50
2023-02-02T03:33:50.298Z,1.42
2023-02-02T03:36:53.129Z,1.60
2023-02-02T03:39:55.702Z,1.77
2023-02-02T03:42:58.882Z,1.60
2023-02-02T03:46:04.453Z,1.50
2023-02-02T03:49:07.343Z,1.60
2023-02-02T03:52:12.750Z,1.67
2023-02-02T03:55:15.531Z,1.40
2023-02-02T03:58:18.234Z,1.60
2023-02-02T04:01:29.377Z,1.47
2023-02-02T04:04:32.115Z,1.55
2023-02-02T04:07:34.775Z,1.67
2023-02-02T04:10:39.742Z,1.67
2023-02-02T04:13:43.584Z,1.70
2023-02-02T04:16:46.211Z,1.70
2023-02-02T04:19:49.083Z,1.50
2023-02-02T04:22:51.997Z,1.42
2023-02-02T04:25:54.878Z,1.50
2023-02-02T04:28:57.762Z,1.65
2023-02-02T04:32:00.457Z,1.40
2023-02-02T04:35:03.205Z,1.48
2023-02-02T04:38:06.000Z,1.73
2023-02-02T04:41:11.579Z,1.40
2023-02-02T04:44:16.125Z,1.70
2023-02-02T04:47:18.722Z,1.33
2023-02-02T04:50:21.719Z,1.40
2023-02-02T04:53:24.384Z,1.60
2023-02-02T04:56:29.205Z,1.45
2023-02-02T04:59:32.043Z,1.60
2023-02-02T05:02:39.211Z,1.60
2023-02-02T05:05:42.013Z,1.40
2023-02-02T05:08:45.926Z,1.50
2023-02-02T05:11:49.743Z,1.60
2023-02-02T05:14:52.351Z,1.50
2023-02-02T05:17:55.283Z,1.60
2023-02-02T05:21:03.284Z,1.40
2023-02-02T05:24:06.173Z,1.70
2023-02-02T05:27:08.743Z,1.40
2023-02-02T05:30:13.252Z,1.38
2023-02-02T05:33:18.816Z,1.43
2023-02-02T05:36:21.593Z,1.50
2023-02-02T05:39:24.616Z,1.63
2023-02-02T05:42:27.198Z,1.40
2023-02-02T05:45:29.911Z,1.52
2023-02-02T05:48:32.638Z,1.60
2023-02-02T05:51:40.701Z,1.30
2023-02-02T05:54:43.738Z,1.77
2023-02-02T05:57:46.602Z,1.45
2023-02-02T06:00:49.682Z,1.50
2023-02-02T06:03:52.485Z,1.40
2023-02-02T06:06:55.115Z,1.67
2023-02-02T06:09:58.424Z,1.50
2023-02-02T06:13:01.107Z,1.55
2023-02-02T06:16:04.296Z,1.90
2023-02-02T06:19:07.247Z,1.63
2023-02-02T06:22:09.852Z,1.13
2023-02-02T06:25:12.752Z,1.70
2023-02-02T06:28:15.383Z,1.63
2023-02-02T06:31:19.642Z,1.50
2023-02-02T06:34:22.594Z,1.60
2023-02-02T06:37:25.773Z,1.63
2023-02-02T06:40:29.641Z,1.63
2023-02-02T06:43:34.070Z,1.80
2023-02-02T06:46:38.285Z,1.70
2023-02-02T06:49:41.911Z,1.70
2023-02-02T06:52:52.454Z,1.45
2023-02-02T06:56:03.702Z,1.83
2023-02-02T06:59:06.929Z,1.70
2023-02-02T07:02:12.127Z,1.35
2023-02-02T07:05:15.040Z,1.63
2023-02-02T07:08:18.061Z,1.70
2023-02-02T07:11:21.956Z,1.60
2023-02-02T07:14:27.110Z,1.35
2023-02-02T07:17:29.677Z,1.73
2023-02-02T07:20:33.782Z,1.77
2023-02-02T07:23:36.533Z,1.88
2023-02-02T07:26:41.431Z,1.60
2023-02-02T07:29:45.561Z,1.60
2023-02-02T07:32:54.780Z,1.63
2023-02-02T07:35:57.703Z,1.50
2023-02-02T07:39:04.018Z,1.67
2023-02-02T07:42:08.736Z,1.65
2023-02-02T07:45:26.578Z,1.48
2023-02-02T07:48:31.286Z,1.98
2023-02-02T07:51:34.285Z,1.70
2023-02-02T07:54:41.872Z,1.80
2023-02-02T07:58:10.975Z,2.20
2023-02-02T08:01:17.573Z,1.80
2023-02-02T08:04:21.276Z,2.13
2023-02-02T08:07:24.930Z,1.90
2023-02-02T08:10:28.681Z,1.90
2023-02-02T08:13:33.230Z,1.75
2023-02-02T08:16:36.421Z,1.60
2023-02-02T08:19:39.374Z,1.98
2023-02-02T08:22:45.259Z,1.60
2023-02-02T08:25:50.219Z,1.60
2023-02-02T08:28:58.387Z,1.63
2023-02-02T08:32:02.097Z,1.95
2023-02-02T08:35:05.081Z,2.20
2023-02-02T08:38:08.142Z,2.13
2023-02-02T08:41:13.787Z,1.50
2023-02-02T08:44:19.616Z,1.90
2023-02-02T08:47:24.165Z,1.58
2023-02-02T08:50:27.192Z,1.90
2023-02-02T08:53:30.483Z,1.90
2023-02-02T08:56:33.398Z,1.80
2023-02-02T08:59:36.408Z,2.10
2023-02-02T09:02:40.312Z,1.88
2023-02-02T09:05:44.306Z,2.47
2023-02-02T09:12:08.981Z,1.63
2023-02-02T09:15:12.876Z,1.90
2023-02-02T09:18:15.753Z,1.70
2023-02-02T09:21:20.220Z,1.70
2023-02-02T09:24:24.411Z,1.70
2023-02-02T09:27:27.296Z,1.70
2023-02-02T09:30:34.847Z,2.00
2023-02-02T09:33:39.861Z,2.45
2023-02-02T09:36:44.146Z,1.63
2023-02-02T09:39:46.805Z,1.93
2023-02-02T09:42:49.980Z,1.80
2023-02-02T09:46:07.396Z,2.10
2023-02-02T09:49:21.339Z,2.05
2023-02-02T09:52:34.008Z,2.25
2023-02-02T09:55:45.305Z,1.60
2023-02-02T09:58:55.039Z,1.65
2023-02-02T10:02:03.631Z,2.20
2023-02-02T10:05:15.457Z,2.08
2023-02-02T10:08:34.690Z,2.40
2023-02-02T10:11:50.866Z,1.87
2023-02-02T10:15:06.551Z,2.00
2023-02-02T10:18:37.251Z,1.85
2023-02-02T10:22:06.524Z,1.80
2023-02-02T10:25:14.517Z,1.33
2023-02-02T10:28:19.561Z,1.70
2023-02-02T10:31:41.350Z,2.08
2023-02-02T10:35:23.698Z,1.80
2023-02-02T10:38:45.055Z,1.77
2023-02-02T10:42:32.335Z,1.65
2023-02-02T10:45:38.475Z,2.10
2023-02-02T10:48:45.454Z,1.70
2023-02-02T10:52:17.943Z,2.22
2023-02-02T10:55:39.831Z,1.88
2023-02-02T10:59:14.578Z,2.05
2023-02-02T11:02:21.100Z,2.17
2023-02-02T11:05:48.099Z,1.73
2023-02-02T11:09:00.498Z,1.77
2023-02-02T11:12:25.851Z,2.33
2023-02-02T11:15:31.201Z,1.75
2023-02-02T11:18:35.655Z,1.97
2023-02-02T11:21:40.757Z,1.70
2023-02-02T11:28:50.672Z,2.15
2023-02-02T11:31:57.268Z,2.17
2023-02-02T11:35:05.554Z,1.70
2023-02-02T11:38:15.012Z,1.52
2023-02-02T11:41:19.280Z,2.10
2023-02-02T11:44:26.726Z,1.85
2023-02-02T11:47:33.662Z,1.63
2023-02-02T11:50:36.781Z,1.70
2023-02-02T11:53:48.984Z,2.15
2023-02-02T11:56:54.208Z,1.95
2023-02-02T12:00:17.981Z,1.95
2023-02-02T12:03:30.390Z,1.70
2023-02-02T12:06:41.448Z,2.10
2023-02-02T12:09:48.754Z,2.03
2023-02-02T12:13:56.752Z,1.92
2023-02-02T12:17:20.923Z,1.80
2023-02-02T12:20:40.179Z,2.08
2023-02-02T12:24:01.585Z,2.00
2023-02-02T12:27:51.353Z,2.13
2023-02-02T12:31:57.426Z,1.73
2023-02-02T12:35:29.165Z,1.95
2023-02-02T12:39:07.830Z,2.45
2023-02-02T12:42:23.201Z,2.10
2023-02-02T12:46:06.652Z,1.80
2023-02-02T12:49:47.387Z,2.53
2023-02-02T12:53:31.841Z,2.03
2023-02-02T12:56:54.658Z,2.20
2023-02-02T13:00:20.172Z,1.70
2023-02-02T13:03:33.528Z,1.77
2023-02-02T13:10:39.768Z,1.70
2023-02-02T13:13:42.573Z,1.58
2023-02-02T13:16:49.369Z,1.97
2023-02-02T13:19:55.609Z,2.00
2023-02-02T13:23:07.337Z,1.77
2023-02-02T13:26:22.124Z,2.38
2023-02-02T13:29:47.614Z,1.98
2023-02-02T13:32:53.610Z,2.17
2023-02-02T13:36:02.811Z,1.90
2023-02-02T13:39:16.373Z,2.10
2023-02-02T13:43:05.382Z,2.00
2023-02-02T13:46:19.806Z,2.20
2023-02-02T13:49:37.007Z,2.33
2023-02-02T13:52:45.442Z,1.90
2023-02-02T13:55:51.078Z,2.05
2023-02-02T13:59:03.066Z,2.05
2023-02-02T14:02:23.760Z,1.85
2023-02-02T14:05:41.437Z,1.90
2023-02-02T14:08:49.185Z,2.03
2023-02-02T14:12:13.677Z,1.83
2023-02-02T14:15:16.502Z,1.83
2023-02-02T14:18:51.084Z,2.47
2023-02-02T14:22:08.938Z,2.37
2023-02-02T14:25:29.678Z,2.17
2023-02-02T14:28:44.941Z,2.55
2023-02-02T14:31:54.839Z,2.03
2023-02-02T14:35:10.480Z,2.05
2023-02-02T14:38:36.483Z,1.87
2023-02-02T14:42:26.940Z,2.00
2023-02-02T14:45:31.693Z,2.00
2023-02-02T14:48:35.120Z,2.10
2023-02-02T14:51:48.315Z,1.90
2023-02-02T14:54:52.223Z,2.17
2023-02-02T14:58:03.173Z,1.70
2023-02-02T15:01:25.095Z,2.45
2023-02-02T15:04:29.735Z,2.67
2023-02-02T15:07:32.185Z,2.33
2023-02-02T15:10:54.959Z,1.80
2023-02-02T15:14:07.122Z,2.22
2023-02-02T15:17:29.138Z,2.40
2023-02-02T15:20:53.763Z,2.13
2023-02-02T15:23:57.938Z,2.10
2023-02-02T15:27:03.074Z,2.23
2023-02-02T15:30:12.787Z,1.90
2023-02-02T15:33:43.957Z,2.42
2023-02-02T15:36:48.473Z,2.05
2023-02-02T15:39:58.435Z,2.00
2023-02-02T15:43:05.649Z,1.80
2023-02-02T15:46:13.523Z,1.98
2023-02-02T15:49:33.293Z,1.95
2023-02-02T15:52:47.065Z,2.40
2023-02-02T15:55:49.879Z,2.35
2023-02-02T15:58:57.418Z,2.10
2023-02-02T16:02:11.829Z,2.35
2023-02-02T16:05:36.717Z,2.03
2023-02-02T16:08:41.141Z,1.92
2023-02-02T16:11:45.496Z,2.67
2023-02-02T16:14:51.464Z,1.80
2023-02-02T16:18:04.482Z,2.65
2023-02-02T16:21:15.066Z,2.05
2023-02-02T16:24:32.723Z,2.03
2023-02-02T16:27:36.012Z,2.10
2023-02-02T16:30:40.488Z,1.97
2023-02-02T16:33:44.815Z,2.55
2023-02-02T16:37:28.334Z,3.22
2023-02-02T16:40:31.188Z,2.92
2023-02-02T16:43:35.489Z,2.90
2023-02-02T16:46:45.941Z,2.60
2023-02-02T16:49:48.696Z,2.95
2023-02-02T16:52:56.800Z,2.55
2023-02-02T16:55:59.599Z,2.83
2023-02-02T16:59:14.063Z,2.70
2023-02-02T17:02:24.683Z,2.63
2023-02-02T17:05:32.294Z,2.38
2023-02-02T17:08:39.451Z,2.50
2023-02-02T17:12:35.180Z,3.03
2023-02-02T17:15:38.252Z,2.70
2023-02-02T17:18:41.939Z,2.67
2023-02-02T17:21:44.934Z,2.50
2023-02-02T17:24:50.918Z,2.92
2023-02-02T17:27:59.364Z,2.40
2023-02-02T17:31:06.692Z,2.88
2023-02-02T17:34:15.104Z,2.80
2023-02-02T17:37:18.308Z,2.33
2023-02-02T17:40:23.194Z,2.33
2023-02-02T17:43:27.074Z,2.70
2023-02-02T17:46:33.739Z,2.70
2023-02-02T17:49:36.792Z,2.47
2023-02-02T17:52:40.170Z,2.63
2023-02-02T17:55:45.589Z,2.50
2023-02-02T17:58:51.566Z,2.92
2023-02-02T18:01:55.196Z,2.67
2023-02-02T18:04:58.295Z,2.40
2023-02-02T18:08:01.500Z,2.45
2023-02-02T18:11:04.954Z,2.70
2023-02-02T18:14:09.564Z,2.58
2023-02-02T18:17:12.504Z,2.80
2023-02-02T18:20:16.941Z,2.30
2023-02-02T18:23:21.599Z,2.30
2023-02-02T18:26:27.122Z,2.85
2023-02-02T18:29:30.838Z,2.80
2023-02-02T18:32:39.155Z,2.40
2023-02-02T18:35:43.473Z,2.03
2023-02-02T18:38:48.395Z,2.90
2023-02-02T18:41:52.177Z,2.20
2023-02-02T18:44:56.143Z,2.28
2023-02-02T18:48:00.051Z,2.03
2023-02-02T18:51:11.008Z,2.10
2023-02-02T18:54:15.090Z,2.42
2023-02-02T18:57:19.225Z,2.50
2023-02-02T19:00:22.982Z,2.30
2023-02-02T19:03:29.982Z,2.50
2023-02-02T19:06:54.551Z,1.80
2023-02-02T19:09:58.310Z,2.00
2023-02-02T19:13:20.869Z,2.50
2023-02-02T19:16:33.167Z,2.47
2023-02-02T19:19:40.447Z,2.30
2023-02-02T19:22:44.582Z,1.93
2023-02-02T19:25:51.692Z,2.15
2023-02-02T19:29:02.960Z,2.10
2023-02-02T19:32:15.156Z,2.35
2023-02-02T19:35:25.541Z,2.53
2023-02-02T19:38:29.950Z,2.27
2023-02-02T19:41:33.435Z,2.33
2023-02-02T19:44:38.996Z,2.08
2023-02-02T19:47:44.627Z,2.30
2023-02-02T19:50:48.412Z,2.22
2023-02-02T19:53:53.556Z,2.13
2023-02-02T19:57:02.293Z,2.40
2023-02-02T20:00:22.732Z,2.40
2023-02-02T20:03:35.845Z,2.60
2023-02-02T20:06:56.709Z,1.95
2023-02-02T20:10:42.688Z,2.13
2023-02-02T20:13:51.537Z,2.15
2023-02-02T20:17:13.648Z,2.13
2023-02-02T20:20:29.039Z,2.40
2023-02-02T20:23:41.300Z,2.40
2023-02-02T20:26:50.269Z,2.40
2023-02-02T20:30:01.699Z,2.40
2023-02-02T20:33:21.297Z,2.08
2023-02-02T20:36:27.867Z,2.42
2023-02-02T20:39:41.573Z,2.30
2023-02-02T20:42:46.501Z,2.50
2023-02-02T20:45:50.434Z,2.30
2023-02-02T20:48:55.914Z,2.85
2023-02-02T20:52:02.047Z,2.50
2023-02-02T20:55:05.819Z,2.20
2023-02-02T20:58:09.887Z,2.57
2023-02-02T21:01:13.061Z,2.13
2023-02-02T21:04:17.611Z,2.25
2023-02-02T21:07:21.897Z,2.20
2023-02-02T21:10:26.324Z,2.20
2023-02-02T21:13:30.278Z,2.17
2023-02-02T21:16:34.324Z,2.00
2023-02-02T21:19:37.873Z,2.40
2023-02-02T21:22:41.103Z,2.55
2023-02-02T21:25:43.959Z,2.38
2023-02-02T21:28:46.779Z,2.20
2023-02-02T21:31:49.607Z,2.17
2023-02-02T21:34:52.375Z,2.22
2023-02-02T21:37:57.686Z,2.35
2023-02-02T21:41:13.644Z,2.58
2023-02-02T21:44:19.537Z,2.50
2023-02-02T21:47:37.169Z,2.42
2023-02-02T21:50:41.706Z,2.33
2023-02-02T21:53:44.308Z,2.20
2023-02-02T21:56:47.214Z,2.08
2023-02-02T21:59:56.238Z,2.03
2023-02-02T22:02:59.477Z,2.53
2023-02-02T22:06:22.908Z,2.47
2023-02-02T22:09:28.077Z,2.30
2023-02-02T22:12:32.173Z,2.30
2023-02-02T22:15:34.902Z,2.17
2023-02-02T22:18:37.533Z,2.22
2023-02-02T22:21:40.218Z,2.33
2023-02-02T22:24:56.777Z,2.95
2023-02-02T22:28:05.048Z,2.30
2023-02-02T22:31:10.157Z,2.33
2023-02-02T22:34:12.969Z,2.25
2023-02-02T22:37:15.534Z,2.35
2023-02-02T22:40:22.406Z,2.33
2023-02-02T22:43:25.084Z,2.20
2023-02-02T22:46:27.819Z,2.40
2023-02-02T22:49:30.451Z,2.33
2023-02-02T22:52:32.998Z,2.40
2023-02-02T22:55:35.698Z,2.20
2023-02-02T22:58:38.259Z,2.20
2023-02-02T23:01:40.753Z,2.10
2023-02-02T23:04:43.291Z,2.10
2023-02-02T23:07:46.764Z,2.33
2023-02-02T23:10:49.386Z,1.80
2023-02-02T23:13:52.008Z,2.30
2023-02-02T23:16:54.520Z,2.63
2023-02-02T23:19:57.914Z,2.00
2023-02-02T23:23:00.522Z,2.10
2023-02-02T23:26:03.143Z,1.98
2023-02-02T23:29:05.651Z,2.08
2023-02-02T23:32:08.636Z,2.20
2023-02-02T23:35:11.399Z,2.15
2023-02-02T23:38:14.018Z,2.38
2023-02-02T23:41:16.978Z,2.10
2023-02-02T23:44:19.763Z,2.00
2023-02-02T23:47:22.501Z,2.20
2023-02-02T23:50:25.501Z,2.00
2023-02-02T23:53:28.790Z,2.30
2023-02-02T23:56:31.927Z,1.83
2023-02-02T23:59:34.582Z,2.13
